Time;durP1;ratioP1;P1;durP2;ratioP2;P2;SDS_P1;SDS_P2;PMS_P1;PMS_P2;Temp;Humidity;BMP_temperature;BMP_pressure;BME280_temperature;BME280_humidity;BME280_pressure;Samples;Min_cycle;Max_cycle;Signal;HPM_P1;HPM_P2
2023/04/22 00:02:06;;;;;;;10.23;6.67;;;12.80;99.90;;;;;;10419692;28;20280;-72
2023/04/22 00:07:07;;;;;;;10.90;6.47;;;12.80;99.90;;;;;;10424376;28;20274;-71
2023/04/22 00:12:10;;;;;;;13.33;6.83;;;12.70;99.90;;;;;;10426823;28;20310;-71
2023/04/22 00:17:11;;;;;;;10.20;6.57;;;12.70;99.90;;;;;;10420865;28;20710;-73
2023/04/22 00:22:11;;;;;;;10.07;6.70;;;12.70;99.90;;;;;;10425934;28;20311;-71
2023/04/22 00:27:12;;;;;;;11.43;6.27;;;12.60;99.90;;;;;;10424063;28;20236;-74
2023/04/22 00:32:13;;;;;;;7.77;5.60;;;12.60;99.90;;;;;;10428015;28;20232;-73
2023/04/22 00:37:13;;;;;;;7.67;5.67;;;12.70;99.90;;;;;;10426418;28;20224;-72
2023/04/22 00:42:15;;;;;;;9.77;5.47;;;12.70;99.90;;;;;;10426725;28;20306;-71
2023/04/22 00:47:16;;;;;;;7.73;4.73;;;12.70;99.90;;;;;;10428636;28;20227;-71
2023/04/22 00:52:16;;;;;;;9.30;5.97;;;12.70;99.90;;;;;;10432391;28;20726;-71
2023/04/22 00:57:17;;;;;;;7.93;5.10;;;12.60;99.90;;;;;;10425985;28;20316;-71
2023/04/22 01:02:18;;;;;;;4.10;3.50;;;12.60;99.90;;;;;;10436490;28;20221;-68
2023/04/22 01:07:19;;;;;;;6.07;4.07;;;12.60;99.90;;;;;;10431627;28;20299;-68
2023/04/22 01:12:19;;;;;;;4.80;3.77;;;12.60;99.90;;;;;;10430855;28;20221;-68
2023/04/22 01:17:20;;;;;;;4.27;3.47;;;12.60;99.90;;;;;;10427653;28;20730;-68
2023/04/22 01:22:22;;;;;;;3.60;3.30;;;12.60;99.90;;;;;;10430532;28;20274;-67
2023/04/22 01:27:24;;;;;;;3.23;2.93;;;12.60;99.90;;;;;;10432054;28;20275;-70
2023/04/22 01:32:25;;;;;;;3.90;3.40;;;12.60;99.90;;;;;;10430038;28;20224;-68
2023/04/22 01:37:25;;;;;;;4.73;3.93;;;12.50;99.90;;;;;;10426875;28;20692;-68
2023/04/22 01:42:30;;;;;;;6.27;4.30;;;12.50;99.90;;;;;;10425066;28;20217;-67
2023/04/22 01:47:30;;;;;;;5.93;4.40;;;12.40;99.90;;;;;;10416011;28;20303;-70
2023/04/22 01:52:31;;;;;;;4.83;3.83;;;12.40;99.90;;;;;;10425590;28;20306;-68
2023/04/22 01:57:32;;;;;;;6.10;4.00;;;12.40;99.90;;;;;;10422903;28;20220;-68
2023/04/22 02:02:32;;;;;;;6.53;4.40;;;12.30;99.90;;;;;;10427476;28;20229;-67
2023/04/22 02:07:35;;;;;;;4.87;4.10;;;12.30;99.90;;;;;;10426616;28;20232;-69
2023/04/22 02:12:35;;;;;;;7.43;4.10;;;12.20;99.90;;;;;;10424944;28;20765;-69
2023/04/22 02:17:37;;;;;;;4.40;4.00;;;12.20;99.90;;;;;;10431232;28;20224;-69
2023/04/22 02:22:40;;;;;;;6.37;4.17;;;12.20;99.90;;;;;;10422794;28;20277;-69
2023/04/22 02:27:41;;;;;;;6.63;4.07;;;12.20;99.90;;;;;;10425212;28;20221;-69
2023/04/22 02:32:42;;;;;;;4.63;3.90;;;12.20;99.90;;;;;;10431389;28;20224;-70
2023/04/22 02:37:42;;;;;;;5.70;3.70;;;12.20;99.90;;;;;;10417099;28;20227;-69
2023/04/22 02:42:43;;;;;;;6.33;4.43;;;12.30;99.90;;;;;;10430928;28;20349;-70
2023/04/22 02:47:43;;;;;;;4.17;3.77;;;12.30;99.90;;;;;;10424091;28;20224;-68
2023/04/22 02:52:47;;;;;;;7.07;3.50;;;12.30;99.90;;;;;;10430702;28;20245;-68
2023/04/22 02:57:47;;;;;;;4.93;3.80;;;12.20;99.90;;;;;;10423095;28;20361;-68
2023/04/22 03:02:51;;;;;;;4.27;3.60;;;12.20;99.90;;;;;;10422579;28;20362;-68
2023/04/22 03:07:52;;;;;;;5.03;4.00;;;12.10;99.90;;;;;;10426257;28;20283;-67
2023/04/22 03:12:52;;;;;;;5.33;3.60;;;12.10;99.90;;;;;;10403378;28;20228;-68
2023/04/22 03:17:53;;;;;;;4.80;3.87;;;12.00;99.90;;;;;;10427811;28;20228;-67
2023/04/22 03:22:57;;;;;;;4.90;3.87;;;12.00;99.90;;;;;;10424102;28;20220;-69
2023/04/22 03:27:57;;;;;;;4.50;4.10;;;11.90;99.90;;;;;;10429408;28;20215;-69
2023/04/22 03:32:58;;;;;;;4.80;4.30;;;11.80;99.90;;;;;;10419597;28;20220;-68
2023/04/22 03:37:59;;;;;;;6.03;4.70;;;11.70;99.90;;;;;;10418276;28;20704;-68
2023/04/22 03:42:59;;;;;;;6.67;4.33;;;11.60;99.90;;;;;;10429574;28;20284;-69
2023/04/22 03:48:00;;;;;;;4.93;4.20;;;11.50;99.90;;;;;;10423262;28;20224;-69
2023/04/22 03:53:00;;;;;;;6.17;4.10;;;11.30;99.90;;;;;;10421463;28;20596;-67
2023/04/22 03:58:01;;;;;;;4.87;4.17;;;11.30;99.90;;;;;;10423342;28;20819;-68
2023/04/22 04:03:01;;;;;;;6.93;4.60;;;11.20;99.90;;;;;;10404070;28;20216;-68
2023/04/22 04:08:02;;;;;;;5.03;4.30;;;11.20;99.90;;;;;;10430642;28;20224;-68
2023/04/22 04:13:03;;;;;;;7.03;4.70;;;11.10;99.90;;;;;;10426112;28;20320;-68
2023/04/22 04:18:04;;;;;;;5.93;4.77;;;11.10;99.90;;;;;;10429172;28;20229;-69
2023/04/22 04:23:05;;;;;;;6.57;4.87;;;11.10;99.90;;;;;;10429290;28;20216;-69
2023/04/22 04:28:09;;;;;;;4.40;4.00;;;11.10;99.90;;;;;;10424010;28;20216;-68
2023/04/22 04:33:10;;;;;;;6.97;4.20;;;11.10;99.90;;;;;;10423103;28;20216;-68
2023/04/22 04:38:11;;;;;;;5.20;4.43;;;11.20;99.90;;;;;;10433567;28;20224;-67
2023/04/22 04:43:13;;;;;;;5.10;4.30;;;11.20;99.90;;;;;;10436406;28;20220;-67
2023/04/22 04:48:14;;;;;;;4.77;4.30;;;11.20;99.90;;;;;;10432877;28;20311;-69
2023/04/22 04:53:14;;;;;;;5.43;4.60;;;11.30;99.90;;;;;;10432078;28;20259;-69
2023/04/22 04:58:15;;;;;;;4.93;4.43;;;11.40;99.90;;;;;;10422261;28;20320;-70
2023/04/22 05:03:16;;;;;;;5.87;4.00;;;11.40;99.90;;;;;;10430148;28;20248;-69
2023/04/22 05:08:16;;;;;;;5.43;4.40;;;11.40;99.90;;;;;;10422992;28;20224;-66
2023/04/22 05:13:17;;;;;;;6.47;4.50;;;11.60;99.90;;;;;;10431180;28;20761;-65
2023/04/22 05:18:17;;;;;;;6.17;4.83;;;11.70;99.90;;;;;;10426203;28;20236;-69
2023/04/22 05:23:18;;;;;;;6.37;5.30;;;11.80;99.90;;;;;;10430104;28;20250;-69
2023/04/22 05:28:19;;;;;;;6.73;4.73;;;11.80;99.90;;;;;;10426076;28;20299;-71
2023/04/22 05:33:20;;;;;;;7.13;4.73;;;11.90;99.90;;;;;;10419606;28;20223;-70
2023/04/22 05:38:20;;;;;;;5.93;4.90;;;12.00;99.90;;;;;;10428864;28;20225;-71
2023/04/22 05:43:21;;;;;;;6.43;5.23;;;12.10;99.90;;;;;;10428928;28;20223;-70
2023/04/22 05:48:25;;;;;;;7.27;5.23;;;12.30;99.90;;;;;;10427247;28;20219;-68
2023/04/22 05:53:25;;;;;;;6.30;4.80;;;12.60;99.90;;;;;;10420241;28;20251;-68
2023/04/22 05:58:26;;;;;;;6.40;4.60;;;13.10;99.90;;;;;;10423237;28;20267;-70
2023/04/22 06:03:26;;;;;;;6.70;4.20;;;13.50;99.90;;;;;;10430162;28;20216;-72
2023/04/22 06:08:29;;;;;;;7.03;4.47;;;13.70;99.90;;;;;;10431019;28;20610;-71
2023/04/22 06:13:30;;;;;;;6.43;4.83;;;13.80;99.90;;;;;;10424989;28;20745;-70
2023/04/22 06:18:31;;;;;;;6.30;4.70;;;14.00;99.90;;;;;;10421434;28;20231;-70
2023/04/22 06:23:32;;;;;;;7.63;4.60;;;14.70;99.90;;;;;;10427234;28;20247;-70
2023/04/22 06:28:32;;;;;;;7.10;5.27;;;15.60;99.90;;;;;;10429105;28;20257;-69
2023/04/22 06:33:33;;;;;;;5.87;4.90;;;16.30;99.90;;;;;;10416901;28;20278;-70
2023/04/22 06:38:33;;;;;;;6.70;4.87;;;16.50;99.90;;;;;;10426700;28;20237;-70
2023/04/22 06:43:34;;;;;;;7.20;5.40;;;16.50;99.90;;;;;;10431543;28;20220;-72
2023/04/22 06:48:34;;;;;;;7.40;5.23;;;17.80;99.90;;;;;;10436814;28;20214;-70
2023/04/22 06:53:35;;;;;;;6.03;4.97;;;18.10;99.90;;;;;;10424191;28;20249;-70
2023/04/22 06:58:38;;;;;;;6.23;5.17;;;17.70;99.90;;;;;;10430593;28;20482;-71
2023/04/22 07:03:39;;;;;;;6.50;5.57;;;17.40;99.90;;;;;;10422941;28;20225;-71
2023/04/22 07:08:39;;;;;;;6.17;5.37;;;17.20;99.90;;;;;;10419342;28;20510;-71
2023/04/22 07:13:40;;;;;;;6.70;5.50;;;17.60;99.90;;;;;;10428121;28;20843;-71
2023/04/22 07:18:41;;;;;;;6.00;5.40;;;17.80;99.90;;;;;;10424013;28;20333;-71
2023/04/22 07:23:41;;;;;;;5.10;4.60;;;17.80;99.90;;;;;;10429662;28;20215;-71
2023/04/22 07:28:42;;;;;;;8.87;6.23;;;18.10;99.90;;;;;;10422146;28;20246;-71
2023/04/22 07:33:42;;;;;;;8.33;6.03;;;18.30;99.90;;;;;;10419707;28;20224;-70
2023/04/22 07:38:43;;;;;;;8.57;5.10;;;20.10;99.90;;;;;;10437553;28;20226;-71
2023/04/22 07:43:43;;;;;;;7.13;5.37;;;23.80;99.90;;;;;;10433480;28;20215;-71
2023/04/22 07:48:44;;;;;;;6.50;5.80;;;27.00;89.50;;;;;;10429539;28;20220;-70
2023/04/22 07:53:45;;;;;;;7.07;6.37;;;27.00;72.70;;;;;;10430769;28;20247;-72
2023/04/22 07:58:45;;;;;;;7.47;6.73;;;25.70;73.90;;;;;;10430012;28;20223;-70
2023/04/22 08:03:46;;;;;;;5.77;5.00;;;26.10;72.20;;;;;;10436144;28;20219;-70
2023/04/22 08:08:46;;;;;;;6.30;5.60;;;26.70;71.60;;;;;;10426965;28;20220;-70
2023/04/22 08:13:47;;;;;;;6.57;5.40;;;28.10;63.30;;;;;;10439000;28;20226;-70
2023/04/22 08:18:48;;;;;;;6.90;5.23;;;30.30;58.00;;;;;;10426020;28;20312;-70
2023/04/22 08:23:48;;;;;;;7.00;4.13;;;32.10;51.70;;;;;;10419673;28;20216;-70
2023/04/22 08:28:49;;;;;;;7.07;4.63;;;32.40;49.50;;;;;;10414213;28;20678;-70
2023/04/22 08:33:50;;;;;;;4.77;4.27;;;33.40;46.00;;;;;;10428741;28;20243;-70
2023/04/22 08:38:51;;;;;;;4.83;4.30;;;32.50;44.50;;;;;;10434191;28;20227;-71
2023/04/22 08:43:52;;;;;;;4.43;3.97;;;32.30;44.50;;;;;;10429189;28;20228;-72
2023/04/22 08:48:53;;;;;;;3.00;2.63;;;29.90;48.50;;;;;;10427011;28;20225;-70
2023/04/22 08:53:53;;;;;;;5.27;3.70;;;31.70;47.70;;;;;;10434553;28;20223;-71
2023/04/22 08:58:55;;;;;;;3.33;3.03;;;32.90;45.70;;;;;;10428122;28;20732;-70
2023/04/22 09:03:58;;;;;;;3.20;2.90;;;32.10;45.80;;;;;;10416968;28;20326;-71
2023/04/22 09:09:00;;;;;;;4.63;3.70;;;31.10;47.10;;;;;;10427229;28;20221;-72
2023/04/22 09:14:02;;;;;;;5.57;3.80;;;29.60;49.50;;;;;;10430044;28;20220;-71
2023/04/22 09:19:03;;;;;;;4.80;4.03;;;28.50;51.80;;;;;;10427718;28;20726;-71
2023/04/22 09:24:07;;;;;;;5.27;4.37;;;28.30;53.30;;;;;;10421908;28;20279;-71
2023/04/22 09:29:12;;;;;;;5.43;3.60;;;29.10;51.50;;;;;;10419489;28;20694;-72
2023/04/22 09:34:13;;;;;;;4.67;3.53;;;30.60;49.10;;;;;;10430573;28;20258;-71
2023/04/22 09:39:14;;;;;;;3.47;3.17;;;31.20;47.40;;;;;;10428013;28;20643;-71
2023/04/22 09:44:19;;;;;;;3.00;2.80;;;30.20;47.80;;;;;;10429834;28;20225;-71
2023/04/22 09:49:20;;;;;;;2.83;2.63;;;29.70;48.60;;;;;;10426159;28;20244;-71
2023/04/22 09:54:22;;;;;;;2.83;2.53;;;29.20;49.00;;;;;;10427844;28;20247;-71
2023/04/22 09:59:27;;;;;;;3.60;2.40;;;30.00;48.60;;;;;;10423120;28;20229;-71
2023/04/22 10:04:28;;;;;;;2.70;2.30;;;31.60;45.20;;;;;;10426232;28;20217;-72
2023/04/22 10:09:29;;;;;;;2.20;2.10;;;32.70;44.40;;;;;;10426343;28;20243;-71
2023/04/22 10:14:30;;;;;;;1.70;1.60;;;34.10;42.50;;;;;;10430432;28;20228;-70
2023/04/22 10:19:31;;;;;;;2.53;1.70;;;36.30;38.90;;;;;;10425494;28;20232;-71
2023/04/22 10:24:36;;;;;;;3.10;1.90;;;38.30;34.60;;;;;;10428667;28;20694;-72
2023/04/22 10:29:39;;;;;;;2.73;1.90;;;38.60;31.90;;;;;;10419093;28;20322;-73
2023/04/22 10:34:40;;;;;;;2.17;1.83;;;39.10;30.40;;;;;;10423421;28;20649;-73
2023/04/22 10:39:41;;;;;;;3.10;2.00;;;38.30;31.00;;;;;;10429948;28;20345;-70
2023/04/22 10:44:53;;;;;;;2.00;1.80;;;38.00;32.00;;;;;;10420870;28;20621;-72
2023/04/22 10:50:12;;;;;;;2.83;2.10;;;39.00;30.20;;;;;;10407502;28;20240;-72
2023/04/22 10:55:13;;;;;;;2.27;1.53;;;39.30;29.50;;;;;;10427529;28;20345;-71
2023/04/22 11:00:21;;;;;;;2.63;1.70;;;39.30;29.30;;;;;;10421978;28;20295;-71
2023/04/22 11:05:26;;;;;;;2.60;1.57;;;36.20;30.50;;;;;;10424958;28;20241;-72
2023/04/22 11:10:39;;;;;;;2.60;1.83;;;32.40;35.50;;;;;;10424032;28;20264;-71
2023/04/22 11:15:42;;;;;;;2.43;1.90;;;30.00;39.20;;;;;;10428783;28;20273;-72
2023/04/22 11:20:43;;;;;;;3.87;2.10;;;29.10;41.90;;;;;;10422813;28;20235;-72
2023/04/22 11:25:43;;;;;;;2.97;2.30;;;28.90;41.70;;;;;;10417658;28;20228;-71
2023/04/22 11:30:44;;;;;;;2.63;1.97;;;28.60;41.50;;;;;;10428185;28;20233;-70
2023/04/22 11:35:47;;;;;;;5.23;2.13;;;28.20;43.60;;;;;;10420404;28;20219;-69
2023/04/22 11:40:48;;;;;;;3.80;2.10;;;27.80;43.90;;;;;;10428693;28;20222;-70
2023/04/22 11:45:49;;;;;;;2.53;1.90;;;27.10;44.50;;;;;;10420221;28;20297;-73
2023/04/22 11:51:07;;;;;;;3.77;2.00;;;26.00;47.10;;;;;;10419628;28;20242;-71
2023/04/22 11:56:08;;;;;;;3.13;1.83;;;25.70;47.50;;;;;;10419059;28;20229;-71
2023/04/22 12:01:12;;;;;;;3.00;1.80;;;25.80;48.00;;;;;;10414317;28;20233;-71
2023/04/22 12:06:15;;;;;;;2.40;1.77;;;25.90;46.40;;;;;;10425952;28;20331;-71
2023/04/22 12:11:15;;;;;;;5.20;1.83;;;25.70;47.20;;;;;;10417124;28;20643;-71
2023/04/22 12:16:19;;;;;;;2.77;1.57;;;25.50;47.30;;;;;;10425612;28;20221;-70
2023/04/22 12:21:27;;;;;;;3.07;1.67;;;25.90;46.70;;;;;;10429021;28;20322;-71
2023/04/22 12:26:27;;;;;;;1.47;1.37;;;26.30;46.00;;;;;;10427532;28;20634;-70
2023/04/22 12:31:28;;;;;;;2.30;1.70;;;26.10;45.10;;;;;;10419242;28;20231;-72
2023/04/22 12:36:31;;;;;;;2.30;1.60;;;26.00;45.60;;;;;;10429823;28;20223;-72
2023/04/22 12:41:31;;;;;;;3.90;2.17;;;25.90;45.20;;;;;;10430517;28;20312;-70
2023/04/22 12:46:32;;;;;;;2.57;1.73;;;26.00;45.10;;;;;;10432252;28;20305;-70
2023/04/22 12:51:32;;;;;;;3.20;1.70;;;26.10;45.00;;;;;;10429564;28;20259;-71
2023/04/22 12:56:33;;;;;;;3.57;1.70;;;26.00;46.10;;;;;;10432175;28;20233;-70
2023/04/22 13:01:34;;;;;;;2.43;1.90;;;26.00;46.20;;;;;;10426809;28;20280;-70
2023/04/22 13:06:37;;;;;;;5.77;1.70;;;25.70;46.30;;;;;;10429157;28;20287;-73
2023/04/22 13:11:38;;;;;;;3.53;1.80;;;25.60;47.00;;;;;;10426160;28;20239;-71
2023/04/22 13:16:38;;;;;;;2.17;1.97;;;25.20;46.80;;;;;;10426249;28;20220;-71
2023/04/22 13:21:39;;;;;;;3.40;1.80;;;24.60;48.80;;;;;;10426324;28;20258;-70
2023/04/22 13:26:39;;;;;;;2.70;1.97;;;24.00;50.40;;;;;;10426734;28;20221;-70
2023/04/22 13:31:43;;;;;;;3.87;1.80;;;23.60;51.90;;;;;;10432644;28;20243;-72
2023/04/22 13:36:44;;;;;;;4.47;1.87;;;23.20;52.00;;;;;;10425969;28;20645;-71
2023/04/22 13:41:44;;;;;;;3.57;1.80;;;22.90;53.30;;;;;;10425270;28;20231;-70
2023/04/22 13:46:45;;;;;;;3.77;2.23;;;22.60;53.00;;;;;;10424986;28;20767;-70
2023/04/22 13:51:46;;;;;;;2.43;2.00;;;22.40;54.00;;;;;;10424812;28;20321;-71
2023/04/22 13:56:46;;;;;;;3.10;1.53;;;22.10;54.00;;;;;;10432577;28;20353;-70
2023/04/22 14:01:47;;;;;;;2.87;2.17;;;21.90;55.00;;;;;;10417121;28;20225;-70
2023/04/22 14:06:48;;;;;;;3.53;1.93;;;21.70;55.30;;;;;;10423515;28;20358;-70
2023/04/22 14:11:48;;;;;;;3.80;2.10;;;21.50;55.90;;;;;;10430060;28;20227;-71
2023/04/22 14:16:49;;;;;;;2.13;1.70;;;21.30;57.00;;;;;;10421012;28;20691;-70
2023/04/22 14:21:50;;;;;;;5.47;1.53;;;21.20;58.60;;;;;;10415549;28;20232;-72
2023/04/22 14:26:51;;;;;;;3.23;1.70;;;21.00;59.10;;;;;;10427328;28;20273;-70
2023/04/22 14:31:52;;;;;;;3.00;1.60;;;20.90;59.50;;;;;;10423000;28;20228;-69
2023/04/22 14:36:52;;;;;;;4.23;1.70;;;20.70;60.10;;;;;;10424705;28;20694;-70
2023/04/22 14:41:53;;;;;;;3.90;2.40;;;20.50;60.50;;;;;;10424308;28;20290;-71
2023/04/22 14:46:53;;;;;;;5.27;1.90;;;20.40;61.80;;;;;;10423856;28;20235;-71
2023/04/22 14:51:54;;;;;;;3.53;1.70;;;20.30;62.30;;;;;;10430422;28;20231;-70
2023/04/22 14:56:55;;;;;;;2.70;2.00;;;20.40;62.40;;;;;;10423353;28;20760;-71
2023/04/22 15:01:55;;;;;;;2.30;1.70;;;20.50;62.60;;;;;;10426508;28;20629;-69
2023/04/22 15:06:56;;;;;;;4.40;1.80;;;21.10;62.60;;;;;;10419049;28;20286;-71
2023/04/22 15:11:58;;;;;;;5.50;1.93;;;21.40;60.70;;;;;;10421240;28;20236;-70
2023/04/22 15:16:59;;;;;;;3.43;1.47;;;21.50;59.90;;;;;;10416408;28;20217;-69
2023/04/22 15:21:59;;;;;;;2.50;1.33;;;21.50;59.40;;;;;;10428001;28;20342;-70
2023/04/22 15:27:01;;;;;;;3.23;1.50;;;21.40;59.30;;;;;;10423460;28;20244;-69
2023/04/22 15:32:02;;;;;;;3.67;1.30;;;21.00;59.30;;;;;;10427992;28;20232;-70
2023/04/22 15:37:03;;;;;;;4.80;1.40;;;20.70;60.80;;;;;;10424293;28;20216;-70
2023/04/22 15:42:03;;;;;;;3.57;1.50;;;20.50;61.30;;;;;;10428758;28;20224;-70
2023/04/22 15:47:04;;;;;;;3.07;1.60;;;20.40;62.30;;;;;;10429335;28;20302;-70
2023/04/22 15:52:05;;;;;;;5.53;1.50;;;20.30;62.30;;;;;;10422703;28;20239;-70
2023/04/22 15:57:06;;;;;;;1.83;1.40;;;20.20;63.20;;;;;;10421115;28;20235;-70
2023/04/22 16:02:07;;;;;;;3.77;1.63;;;20.10;63.40;;;;;;10420348;28;20232;-71
2023/04/22 16:07:09;;;;;;;4.03;1.90;;;20.00;64.00;;;;;;10432607;28;20377;-71
2023/04/22 16:12:09;;;;;;;3.50;1.50;;;19.80;64.40;;;;;;10435291;28;20232;-71
2023/04/22 16:17:10;;;;;;;4.40;1.77;;;19.80;64.40;;;;;;10412011;28;20693;-71
2023/04/22 16:22:14;;;;;;;3.13;1.50;;;19.80;64.60;;;;;;10426644;28;20664;-70
2023/04/22 16:27:15;;;;;;;3.30;1.50;;;19.90;64.40;;;;;;10434466;28;20251;-70
2023/04/22 16:32:16;;;;;;;4.67;2.33;;;19.90;64.40;;;;;;10427492;28;20217;-70
2023/04/22 16:37:17;;;;;;;3.87;2.47;;;20.20;63.70;;;;;;10426837;28;20292;-70
2023/04/22 16:42:17;;;;;;;4.77;2.13;;;20.40;63.60;;;;;;10437214;28;20230;-70
2023/04/22 16:47:18;;;;;;;5.20;2.20;;;20.60;65.10;;;;;;10432496;28;20244;-70
2023/04/22 16:52:19;;;;;;;4.37;2.07;;;20.60;64.80;;;;;;10431621;28;20235;-70
2023/04/22 16:57:20;;;;;;;6.60;2.07;;;20.40;64.30;;;;;;10436715;28;20232;-71
2023/04/22 17:02:20;;;;;;;2.57;1.53;;;20.30;64.30;;;;;;10430509;28;20228;-70
2023/04/22 17:07:21;;;;;;;3.40;2.07;;;20.20;64.80;;;;;;10435448;28;20313;-70
2023/04/22 17:12:22;;;;;;;2.97;1.63;;;20.00;65.50;;;;;;10429504;28;20228;-70
2023/04/22 17:17:22;;;;;;;3.70;1.57;;;19.80;65.20;;;;;;10424681;28;20247;-70
2023/04/22 17:22:23;;;;;;;5.30;2.80;;;19.80;65.60;;;;;;10433264;28;20243;-71
2023/04/22 17:27:30;;;;;;;6.57;1.87;;;19.70;65.90;;;;;;10430450;28;20263;-70
2023/04/22 17:32:31;;;;;;;4.63;2.20;;;19.60;66.20;;;;;;10429406;28;20287;-70
2023/04/22 17:37:34;;;;;;;2.87;2.00;;;19.50;66.70;;;;;;10431710;28;20223;-70
2023/04/22 17:42:38;;;;;;;3.83;1.80;;;19.40;67.80;;;;;;10427483;28;20239;-71
2023/04/22 17:47:39;;;;;;;4.00;1.80;;;19.30;67.80;;;;;;10431034;28;20234;-71
2023/04/22 17:52:39;;;;;;;1.63;1.53;;;19.20;68.30;;;;;;10427993;28;20222;-69
2023/04/22 17:57:41;;;;;;;3.77;2.10;;;19.00;69.80;;;;;;10427279;28;20295;-70
2023/04/22 18:02:41;;;;;;;2.63;1.90;;;18.90;70.20;;;;;;10427176;28;20324;-70
2023/04/22 18:07:42;;;;;;;4.07;2.00;;;18.80;71.00;;;;;;10423835;28;20313;-69
2023/04/22 18:12:42;;;;;;;3.93;2.33;;;18.60;71.60;;;;;;10423935;28;20294;-70
2023/04/22 18:17:43;;;;;;;4.73;2.20;;;18.60;72.60;;;;;;10420183;28;20220;-70
2023/04/22 18:22:48;;;;;;;5.67;2.37;;;18.40;73.50;;;;;;10423585;28;20224;-70
2023/04/22 18:27:54;;;;;;;3.27;2.00;;;18.30;74.10;;;;;;10436836;28;20239;-70
2023/04/22 18:32:55;;;;;;;5.63;2.20;;;18.10;75.20;;;;;;10424934;28;20725;-71
2023/04/22 18:37:55;;;;;;;8.33;2.10;;;17.90;76.90;;;;;;10429095;28;20222;-70
2023/04/22 18:42:56;;;;;;;3.60;1.93;;;17.70;78.80;;;;;;10422986;28;20216;-70
2023/04/22 18:47:57;;;;;;;5.80;2.00;;;17.50;80.50;;;;;;10430618;28;20218;-71
2023/04/22 18:52:58;;;;;;;3.10;1.63;;;17.40;82.10;;;;;;10430739;28;20211;-70
2023/04/22 18:57:58;;;;;;;6.53;1.90;;;17.30;82.90;;;;;;10427567;28;20604;-71
2023/04/22 19:03:00;;;;;;;2.87;1.93;;;17.30;83.60;;;;;;10423806;28;20218;-70
2023/04/22 19:08:03;;;;;;;2.90;2.10;;;17.30;84.60;;;;;;10419752;28;20656;-70
2023/04/22 19:13:04;;;;;;;2.83;1.80;;;17.30;85.20;;;;;;10424002;28;20769;-71
2023/04/22 19:18:05;;;;;;;4.00;2.10;;;17.30;85.50;;;;;;10418246;28;20278;-71
2023/04/22 19:23:06;;;;;;;6.50;2.47;;;17.30;86.40;;;;;;10426222;28;20629;-70
2023/04/22 19:28:06;;;;;;;2.03;1.83;;;17.30;87.30;;;;;;10423063;28;20230;-70
2023/04/22 19:33:07;;;;;;;3.67;2.20;;;17.20;88.30;;;;;;10428196;28;20629;-70
2023/04/22 19:38:09;;;;;;;3.63;2.00;;;17.10;90.80;;;;;;10431570;28;20279;-71
2023/04/22 19:43:09;;;;;;;3.83;2.10;;;17.10;92.30;;;;;;10437223;28;20698;-70
2023/04/22 19:48:10;;;;;;;2.63;2.20;;;17.00;93.80;;;;;;10431859;28;20226;-70
2023/04/22 19:53:12;;;;;;;3.03;2.30;;;16.90;96.00;;;;;;10435567;28;20222;-71
2023/04/22 19:58:13;;;;;;;4.57;2.40;;;16.70;98.10;;;;;;10428582;28;20231;-70
2023/04/22 20:03:14;;;;;;;2.30;2.10;;;16.60;99.90;;;;;;10427047;28;20214;-69
2023/04/22 20:08:18;;;;;;;6.07;2.80;;;16.50;99.90;;;;;;10432795;28;20594;-68
2023/04/22 20:13:19;;;;;;;5.43;2.30;;;16.40;99.90;;;;;;10424851;28;20222;-70
2023/04/22 20:18:20;;;;;;;3.83;2.17;;;16.40;99.90;;;;;;10437287;28;20774;-71
2023/04/22 20:23:23;;;;;;;6.67;2.50;;;16.30;99.90;;;;;;10421923;28;20228;-70
2023/04/22 20:28:44;;;;;;;4.27;2.30;;;16.20;99.90;;;;;;10424208;28;20219;-70
2023/04/22 20:33:45;;;;;;;3.00;2.30;;;16.10;99.90;;;;;;10436977;28;20228;-70
2023/04/22 20:38:49;;;;;;;4.20;2.53;;;16.00;99.90;;;;;;10428678;28;20275;-70
2023/04/22 20:43:51;;;;;;;3.60;2.40;;;15.90;99.90;;;;;;10428268;28;20701;-71
2023/04/22 20:48:51;;;;;;;5.57;2.90;;;15.80;99.90;;;;;;10419135;28;20227;-70
2023/04/22 20:53:53;;;;;;;5.30;2.63;;;15.70;99.90;;;;;;10436454;28;20222;-70
2023/04/22 20:58:54;;;;;;;3.87;2.90;;;15.60;99.90;;;;;;10428424;28;20821;-70
2023/04/22 21:03:56;;;;;;;4.67;3.00;;;15.50;99.90;;;;;;10427840;28;20357;-69
2023/04/22 21:08:57;;;;;;;6.00;3.17;;;15.40;99.90;;;;;;10434120;28;20217;-71
2023/04/22 21:13:58;;;;;;;5.00;3.70;;;15.40;99.90;;;;;;10426270;28;20218;-69
2023/04/22 21:18:59;;;;;;;5.17;2.80;;;15.30;99.90;;;;;;10427885;28;20238;-70
2023/04/22 21:24:04;;;;;;;5.10;3.10;;;15.30;99.90;;;;;;10434110;28;20218;-69
2023/04/22 21:29:07;;;;;;;4.40;3.07;;;15.30;99.90;;;;;;10422965;28;20225;-70
2023/04/22 21:34:08;;;;;;;3.93;3.03;;;15.20;99.90;;;;;;10434377;28;20220;-70
2023/04/22 21:39:09;;;;;;;4.23;2.90;;;15.20;99.90;;;;;;10431644;28;20233;-70
2023/04/22 21:44:10;;;;;;;6.40;3.10;;;15.10;99.90;;;;;;10428733;28;20223;-72
2023/04/22 21:49:10;;;;;;;6.67;3.20;;;15.00;99.90;;;;;;10431120;28;20702;-69
2023/04/22 21:54:11;;;;;;;3.07;2.73;;;14.90;99.90;;;;;;10422758;28;20272;-70
2023/04/22 21:59:11;;;;;;;4.40;3.00;;;14.80;99.90;;;;;;10426366;28;20225;-70
2023/04/22 22:04:12;;;;;;;4.90;3.00;;;14.80;99.90;;;;;;10417284;28;20210;-70
2023/04/22 22:09:13;;;;;;;5.20;3.20;;;14.70;99.90;;;;;;10432758;28;20271;-70
2023/04/22 22:14:13;;;;;;;3.40;3.10;;;14.70;99.90;;;;;;10422613;28;20218;-70
2023/04/22 22:19:14;;;;;;;3.33;2.73;;;14.70;99.90;;;;;;10425721;28;20231;-70
2023/04/22 22:24:15;;;;;;;3.93;2.50;;;14.60;99.90;;;;;;10428213;28;20223;-71
2023/04/22 22:29:16;;;;;;;4.03;2.93;;;14.60;99.90;;;;;;10427015;28;20227;-71
2023/04/22 22:34:16;;;;;;;4.43;2.83;;;14.60;99.90;;;;;;10419877;28;20226;-70
2023/04/22 22:39:17;;;;;;;4.63;2.80;;;14.60;99.90;;;;;;10421655;28;20233;-70
2023/04/22 22:44:17;;;;;;;4.57;3.23;;;14.50;99.90;;;;;;10422462;28;20223;-70
2023/04/22 22:49:18;;;;;;;4.37;3.20;;;14.50;99.90;;;;;;10426083;28;20237;-70
2023/04/22 22:54:18;;;;;;;5.13;3.40;;;14.50;99.90;;;;;;10423940;28;20227;-70
2023/04/22 22:59:19;;;;;;;5.33;3.90;;;14.50;99.90;;;;;;10422134;28;20241;-70
2023/04/22 23:04:19;;;;;;;7.57;4.07;;;14.40;99.90;;;;;;10422341;28;20223;-71
2023/04/22 23:09:20;;;;;;;5.47;3.70;;;14.40;99.90;;;;;;10425020;28;20597;-70
2023/04/22 23:14:22;;;;;;;4.23;3.80;;;14.50;99.90;;;;;;10427391;28;20311;-71
2023/04/22 23:19:24;;;;;;;5.47;4.10;;;14.30;99.90;;;;;;10430871;28;20651;-71
2023/04/22 23:24:25;;;;;;;5.97;3.63;;;14.30;99.90;;;;;;10426050;28;20224;-70
2023/04/22 23:29:26;;;;;;;5.20;3.63;;;14.30;99.90;;;;;;10416546;28;20243;-70
2023/04/22 23:34:30;;;;;;;5.40;3.63;;;14.20;99.90;;;;;;10437101;28;20303;-70
2023/04/22 23:39:30;;;;;;;7.73;4.00;;;14.20;99.90;;;;;;10426583;28;20226;-69
2023/04/22 23:44:31;;;;;;;4.07;3.00;;;14.10;99.90;;;;;;10419904;28;20597;-70
2023/04/22 23:49:31;;;;;;;3.87;3.47;;;14.10;99.90;;;;;;10421821;28;20226;-70
2023/04/22 23:54:32;;;;;;;4.53;3.47;;;14.10;99.90;;;;;;10421184;28;20300;-70
2023/04/22 23:59:33;;;;;;;4.80;3.33;;;14.10;99.90;;;;;;10425807;28;20574;-68
